createdAt,value
2018-06-13T00:02:26.674Z,3.87
2018-06-13T00:04:54.950Z,4.90
2018-06-13T00:07:23.190Z,6.30
2018-06-13T00:09:51.420Z,7.28
2018-06-13T00:12:20.089Z,4.72
2018-06-13T00:14:48.323Z,4.65
2018-06-13T00:17:17.337Z,5.10
2018-06-13T00:19:45.599Z,4.60
2018-06-13T00:22:13.830Z,4.85
2018-06-13T00:24:42.042Z,7.12
2018-06-13T00:27:10.567Z,4.85
2018-06-13T00:29:38.802Z,4.67
2018-06-13T00:32:07.040Z,3.92
2018-06-13T00:34:36.054Z,4.12
2018-06-13T00:37:04.342Z,3.70
2018-06-13T00:39:32.608Z,3.95
2018-06-13T00:42:01.191Z,5.22
2018-06-13T00:44:29.507Z,3.80
2018-06-13T00:46:57.825Z,4.03
2018-06-13T00:49:26.203Z,4.05
2018-06-13T00:51:54.460Z,3.33
2018-06-13T00:54:22.765Z,5.17
2018-06-13T00:56:51.259Z,3.77
2018-06-13T00:59:19.474Z,3.33
2018-06-13T01:01:47.685Z,3.70
2018-06-13T01:04:16.030Z,4.20
2018-06-13T01:06:44.262Z,4.28
2018-06-13T01:09:14.488Z,4.83
2018-06-13T01:11:43.173Z,5.92
2018-06-13T01:14:11.405Z,4.85
2018-06-13T01:16:39.652Z,5.55
2018-06-13T01:19:08.194Z,3.55
2018-06-13T01:21:36.418Z,3.37
2018-06-13T01:24:04.651Z,4.92
2018-06-13T01:26:33.464Z,4.08
2018-06-13T01:29:01.711Z,4.97
2018-06-13T01:31:29.954Z,5.03
2018-06-13T01:33:58.220Z,5.00
2018-06-13T01:36:27.517Z,4.33
2018-06-13T01:38:56.012Z,3.90
2018-06-13T01:41:24.303Z,3.15
2018-06-13T01:43:52.526Z,2.98
2018-06-13T01:46:20.760Z,3.20
2018-06-13T01:48:49.673Z,4.08
2018-06-13T01:51:18.036Z,3.02
2018-06-13T01:53:46.355Z,3.35
2018-06-13T01:56:14.619Z,4.50
2018-06-13T01:58:42.846Z,3.60
2018-06-13T02:01:11.082Z,5.20
2018-06-13T02:03:39.439Z,4.28
2018-06-13T02:06:07.673Z,3.85
2018-06-13T02:08:37.729Z,3.47
2018-06-13T02:11:06.413Z,2.40
2018-06-13T02:13:34.676Z,3.72
2018-06-13T02:16:02.946Z,2.83
2018-06-13T02:18:31.222Z,3.35
2018-06-13T02:20:59.466Z,4.53
2018-06-13T02:23:27.685Z,3.08
2018-06-13T02:25:56.811Z,3.12
2018-06-13T02:28:25.044Z,3.12
2018-06-13T02:30:53.276Z,3.90
2018-06-13T02:33:22.416Z,3.95
2018-06-13T02:35:50.651Z,2.55
2018-06-13T02:38:18.956Z,2.98
2018-06-13T02:40:47.213Z,3.00
2018-06-13T02:43:15.447Z,2.95
2018-06-13T02:45:43.678Z,2.72
2018-06-13T02:48:13.034Z,2.62
2018-06-13T02:50:41.275Z,3.35
2018-06-13T02:53:09.490Z,3.35
2018-06-13T02:55:37.752Z,2.50
2018-06-13T02:58:05.993Z,3.62
2018-06-13T03:00:34.231Z,3.72
2018-06-13T03:03:02.478Z,3.02
2018-06-13T03:05:30.786Z,3.58
2018-06-13T03:08:00.375Z,3.42
2018-06-13T03:10:28.642Z,2.27
2018-06-13T03:12:57.142Z,3.83
2018-06-13T03:15:25.360Z,2.83
2018-06-13T03:17:53.783Z,3.33
2018-06-13T03:20:21.994Z,3.00
2018-06-13T03:22:49.977Z,2.65
2018-06-13T03:25:19.446Z,2.08
2018-06-13T03:27:47.817Z,2.70
2018-06-13T03:30:16.062Z,2.87
2018-06-13T03:32:44.359Z,2.10
2018-06-13T03:35:12.602Z,2.85
2018-06-13T03:37:41.639Z,3.50
2018-06-13T03:40:09.905Z,2.30
2018-06-13T03:42:38.128Z,2.60
2018-06-13T03:45:06.787Z,2.55
2018-06-13T03:47:35.011Z,2.17
2018-06-13T03:50:03.273Z,2.95
2018-06-13T03:52:31.575Z,2.52
2018-06-13T03:54:59.799Z,2.10
2018-06-13T03:57:28.053Z,3.37
2018-06-13T03:59:56.951Z,1.82
2018-06-13T04:02:25.176Z,2.50
2018-06-13T04:04:53.415Z,2.92
2018-06-13T04:07:21.888Z,2.50
2018-06-13T04:09:51.595Z,2.87
2018-06-13T04:12:19.853Z,3.22
2018-06-13T04:14:48.199Z,4.10
2018-06-13T04:17:16.422Z,2.15
2018-06-13T04:19:44.677Z,2.52
2018-06-13T04:22:13.393Z,2.60
2018-06-13T04:24:41.633Z,1.82
2018-06-13T04:27:09.899Z,2.58
2018-06-13T04:29:38.660Z,2.20
2018-06-13T04:32:07.014Z,1.82
2018-06-13T04:34:35.241Z,3.15
2018-06-13T04:37:03.734Z,2.40
2018-06-13T04:39:31.974Z,2.15
2018-06-13T04:42:00.220Z,2.47
2018-06-13T04:44:28.905Z,2.12
2018-06-13T04:46:57.162Z,2.37
2018-06-13T04:49:25.395Z,4.40
2018-06-13T04:51:53.663Z,1.90
2018-06-13T04:54:21.969Z,2.50
2018-06-13T04:56:50.365Z,2.62
2018-06-13T04:59:18.971Z,1.77
2018-06-13T05:01:47.205Z,2.30
2018-06-13T05:04:15.431Z,1.92
2018-06-13T05:06:43.927Z,2.27
2018-06-13T05:09:13.727Z,2.55
2018-06-13T05:11:42.524Z,2.12
2018-06-13T05:14:14.385Z,2.45
2018-06-13T05:16:42.604Z,3.85
2018-06-13T05:19:10.870Z,3.42
2018-06-13T05:21:39.419Z,2.25
2018-06-13T05:24:07.655Z,3.60
2018-06-13T05:26:35.898Z,5.85
2018-06-13T05:29:04.870Z,6.33
2018-06-13T05:31:33.112Z,7.55
2018-06-13T05:34:01.379Z,8.05
2018-06-13T05:36:29.683Z,16.48
2018-06-13T05:38:57.938Z,8.93
2018-06-13T05:41:26.161Z,11.22
2018-06-13T05:43:54.857Z,26.87
2018-06-13T05:46:23.068Z,21.48
2018-06-13T05:48:51.283Z,20.48
2018-06-13T05:51:20.301Z,16.15
2018-06-13T05:53:48.526Z,13.90
2018-06-13T05:56:16.745Z,7.60
2018-06-13T05:58:45.303Z,8.78
2018-06-13T06:01:13.554Z,12.82
2018-06-13T06:03:41.782Z,8.15
2018-06-13T06:06:10.143Z,8.18
2018-06-13T06:08:40.150Z,12.70
2018-06-13T06:11:08.474Z,8.20
2018-06-13T06:13:36.797Z,10.38
2018-06-13T06:16:05.205Z,12.88
2018-06-13T06:18:33.518Z,9.48
2018-06-13T06:21:02.056Z,8.58
2018-06-13T06:23:30.665Z,9.75
2018-06-13T06:25:58.895Z,6.92
2018-06-13T06:28:30.155Z,5.15
2018-06-13T06:30:58.446Z,7.50
2018-06-13T06:33:26.688Z,7.33
2018-06-13T06:35:55.055Z,6.25
2018-06-13T06:38:23.343Z,7.62
2018-06-13T06:40:51.642Z,9.10
2018-06-13T06:43:20.036Z,9.58
2018-06-13T06:45:48.261Z,6.33
2018-06-13T06:48:16.573Z,6.67
2018-06-13T06:50:46.214Z,7.15
2018-06-13T06:53:14.413Z,6.95
2018-06-13T06:55:42.651Z,7.95
2018-06-13T06:58:11.438Z,9.93
2018-06-13T07:00:39.674Z,6.72
2018-06-13T07:03:08.030Z,6.30
2018-06-13T07:05:36.562Z,4.42
2018-06-13T07:08:06.884Z,7.08
2018-06-13T07:10:35.178Z,3.85
2018-06-13T07:13:03.470Z,5.67
2018-06-13T07:15:32.219Z,5.95
2018-06-13T07:18:00.460Z,3.85
2018-06-13T07:20:29.290Z,6.35
2018-06-13T07:22:57.534Z,5.12
2018-06-13T07:25:25.830Z,2.92
2018-06-13T07:27:54.947Z,4.05
2018-06-13T07:30:23.169Z,6.58
2018-06-13T07:32:51.576Z,4.80
2018-06-13T07:35:20.078Z,3.25
2018-06-13T07:37:48.326Z,3.08
2018-06-13T07:40:16.561Z,5.53
2018-06-13T07:42:46.031Z,7.95
2018-06-13T07:45:14.402Z,4.70
2018-06-13T07:47:42.629Z,4.25
2018-06-13T07:50:11.275Z,3.62
2018-06-13T07:52:39.523Z,5.30
2018-06-13T07:55:07.812Z,4.40
2018-06-13T07:57:36.099Z,6.42
2018-06-13T08:00:04.746Z,3.27
2018-06-13T08:02:32.971Z,3.85
2018-06-13T08:05:01.968Z,5.25
2018-06-13T08:07:30.211Z,5.30
2018-06-13T08:10:00.972Z,3.47
2018-06-13T08:12:29.219Z,5.05
2018-06-13T08:14:57.458Z,7.30
2018-06-13T08:17:25.768Z,10.32
2018-06-13T08:19:54.004Z,4.87
2018-06-13T08:22:22.254Z,4.85
2018-06-13T08:24:55.211Z,5.87
2018-06-13T08:27:23.456Z,6.50
2018-06-13T08:29:51.695Z,5.33
2018-06-13T08:34:53.848Z,3.15
2018-06-13T08:37:22.143Z,4.00
2018-06-13T08:39:50.400Z,5.95
2018-06-13T08:42:18.802Z,4.22
2018-06-13T08:44:47.106Z,4.08
2018-06-13T08:47:15.366Z,3.85
2018-06-13T08:49:43.609Z,4.65
2018-06-13T08:52:12.397Z,7.55
2018-06-13T08:54:40.619Z,3.85
2018-06-13T08:57:08.845Z,5.90
2018-06-13T08:59:37.128Z,2.27
2018-06-13T09:02:05.369Z,3.47
2018-06-13T09:04:33.610Z,2.72
2018-06-13T09:07:02.197Z,4.78
2018-06-13T09:09:32.834Z,3.65
2018-06-13T09:12:01.067Z,2.52
2018-06-13T09:14:29.318Z,3.62
2018-06-13T09:16:57.758Z,5.60
2018-06-13T09:19:26.010Z,3.77
2018-06-13T09:21:54.247Z,2.40
2018-06-13T09:24:22.497Z,3.98
2018-06-13T09:26:50.758Z,5.58
2018-06-13T09:29:18.992Z,2.62
2018-06-13T09:31:47.834Z,2.92
2018-06-13T09:34:16.070Z,4.35
2018-06-13T09:36:44.335Z,3.10
2018-06-13T09:39:12.636Z,4.75
2018-06-13T09:41:46.169Z,4.00
2018-06-13T09:44:14.852Z,3.50
2018-06-13T09:46:48.917Z,5.10
2018-06-13T09:49:11.342Z,6.28
2018-06-13T09:51:40.713Z,2.25
2018-06-13T09:54:08.942Z,3.72
2018-06-13T09:56:37.207Z,3.62
2018-06-13T09:59:11.169Z,8.18
2018-06-13T10:01:44.783Z,3.65
2018-06-13T10:04:13.247Z,5.60
2018-06-13T10:06:41.483Z,11.80
2018-06-13T10:09:09.722Z,3.10
2018-06-13T10:11:38.898Z,4.45
2018-06-13T10:14:07.174Z,7.87
2018-06-13T10:16:35.478Z,6.47
2018-06-13T10:19:03.896Z,2.05
2018-06-13T10:21:32.129Z,3.67
2018-06-13T10:24:00.377Z,3.98
2018-06-13T10:26:28.774Z,4.72
2018-06-13T10:28:57.061Z,3.50
2018-06-13T10:31:25.239Z,5.30
2018-06-13T10:33:54.317Z,5.35
2018-06-13T10:36:22.615Z,8.95
2018-06-13T10:38:50.928Z,3.55
2018-06-13T10:41:19.861Z,8.70
2018-06-13T10:43:48.099Z,5.67
2018-06-13T10:46:16.410Z,6.70
2018-06-13T10:48:45.210Z,8.45
2018-06-13T10:51:13.490Z,9.45
2018-06-13T10:53:41.774Z,7.97
2018-06-13T10:56:10.954Z,5.87
2018-06-13T10:58:39.195Z,11.35
2018-06-13T11:01:07.441Z,14.75
2018-06-13T11:03:35.890Z,7.92
2018-06-13T11:06:04.159Z,12.78
2018-06-13T11:08:35.759Z,7.50
2018-06-13T11:11:04.306Z,7.65
2018-06-13T11:13:32.698Z,9.95
2018-06-13T11:16:01.051Z,13.05
2018-06-13T11:18:29.409Z,19.00
2018-06-13T11:20:57.710Z,23.73
2018-06-13T11:23:25.931Z,18.20
2018-06-13T11:25:54.793Z,11.45
2018-06-13T11:28:23.034Z,15.38
2018-06-13T11:30:51.260Z,9.48
2018-06-13T11:33:19.835Z,13.83
2018-06-13T11:35:48.046Z,13.50
2018-06-13T11:38:16.278Z,8.73
2018-06-13T11:40:45.158Z,6.70
2018-06-13T11:43:14.018Z,13.45
2018-06-13T11:45:42.464Z,12.73
2018-06-13T11:48:11.646Z,14.10
2018-06-13T11:50:39.903Z,17.60
2018-06-13T11:53:08.116Z,15.98
2018-06-13T11:55:39.835Z,17.17
2018-06-13T11:58:08.180Z,17.48
2018-06-13T12:00:36.603Z,9.60
2018-06-13T12:03:04.858Z,14.65
2018-06-13T12:05:33.078Z,9.73
2018-06-13T12:08:03.378Z,12.70
2018-06-13T12:10:31.609Z,8.30
2018-06-13T12:12:59.951Z,10.08
2018-06-13T12:15:28.547Z,8.93
2018-06-13T12:17:56.795Z,11.20
2018-06-13T12:20:25.092Z,7.25
2018-06-13T12:22:53.644Z,8.48
2018-06-13T12:25:21.895Z,7.00
2018-06-13T12:27:50.131Z,4.90
2018-06-13T12:30:19.218Z,8.60
2018-06-13T12:32:47.470Z,13.25
2018-06-13T12:35:15.742Z,9.68
2018-06-13T12:37:44.475Z,7.62
2018-06-13T12:40:12.714Z,7.67
2018-06-13T12:42:40.937Z,6.90
2018-06-13T12:45:09.471Z,5.72
2018-06-13T12:47:37.819Z,6.15
2018-06-13T12:50:06.108Z,6.90
2018-06-13T12:52:34.819Z,6.67
2018-06-13T12:55:03.079Z,10.05
2018-06-13T12:57:31.318Z,8.65
2018-06-13T13:00:00.148Z,12.25
2018-06-13T13:02:28.399Z,6.40
2018-06-13T13:04:56.635Z,5.83
2018-06-13T13:07:27.859Z,5.62
2018-06-13T13:09:56.115Z,13.40
2018-06-13T13:12:24.394Z,11.20
2018-06-13T13:14:52.882Z,7.75
2018-06-13T13:17:21.244Z,8.55
2018-06-13T13:19:49.495Z,9.10
2018-06-13T13:22:17.849Z,7.12
2018-06-13T13:24:46.075Z,5.55
2018-06-13T13:27:14.425Z,7.78
2018-06-13T13:29:46.385Z,7.87
2018-06-13T13:32:14.617Z,4.00
2018-06-13T13:34:42.915Z,5.60
2018-06-13T13:37:11.206Z,10.70
2018-06-13T13:39:39.452Z,10.05
2018-06-13T13:42:08.046Z,5.75
2018-06-13T13:44:36.307Z,5.42
2018-06-13T13:47:04.588Z,5.42
2018-06-13T13:49:33.991Z,4.90
2018-06-13T13:52:02.261Z,6.40
2018-06-13T13:54:30.515Z,4.30
2018-06-13T13:56:59.125Z,3.37
2018-06-13T13:59:27.387Z,5.03
2018-06-13T14:01:55.710Z,4.62
2018-06-13T14:04:24.401Z,6.00
2018-06-13T14:06:53.032Z,4.80
2018-06-13T14:09:24.399Z,5.97
2018-06-13T14:11:52.986Z,6.58
2018-06-13T14:14:21.268Z,7.70
2018-06-13T14:16:49.516Z,12.13
2018-06-13T14:19:18.838Z,7.67
2018-06-13T14:21:47.094Z,13.68
2018-06-13T14:24:15.333Z,13.08
2018-06-13T14:26:44.027Z,8.78
2018-06-13T14:29:12.422Z,4.72
2018-06-13T14:31:40.674Z,11.40
2018-06-13T14:34:08.981Z,7.28
2018-06-13T14:36:37.240Z,5.83
2018-06-13T14:39:07.986Z,6.65
2018-06-13T14:41:36.410Z,11.35
2018-06-13T14:44:04.736Z,5.55
2018-06-13T14:46:32.980Z,5.62
2018-06-13T14:49:02.770Z,5.62
2018-06-13T14:51:31.029Z,5.78
2018-06-13T14:54:00.091Z,5.83
2018-06-13T15:01:37.582Z,5.03
2018-06-13T15:04:05.810Z,4.25
2018-06-13T15:06:34.061Z,4.58
2018-06-13T15:09:05.647Z,4.92
2018-06-13T15:11:34.047Z,3.95
2018-06-13T15:14:02.323Z,4.97
2018-06-13T15:16:30.724Z,4.25
2018-06-13T15:18:58.953Z,4.70
2018-06-13T15:21:27.203Z,6.17
2018-06-13T15:23:55.955Z,3.12
2018-06-13T15:26:24.198Z,4.90
2018-06-13T15:28:52.462Z,4.85
2018-06-13T15:31:21.304Z,2.58
2018-06-13T15:33:49.582Z,4.60
2018-06-13T15:36:17.814Z,5.37
2018-06-13T15:38:46.098Z,3.80
2018-06-13T15:41:14.609Z,4.47
2018-06-13T15:43:42.954Z,4.95
2018-06-13T15:46:11.867Z,5.62
2018-06-13T15:48:40.134Z,7.15
2018-06-13T15:51:08.394Z,5.17
2018-06-13T15:53:37.155Z,3.05
2018-06-13T15:56:05.142Z,4.25
2018-06-13T15:58:33.443Z,2.62
2018-06-13T16:01:01.953Z,3.15
2018-06-13T16:03:30.215Z,4.95
2018-06-13T16:05:58.463Z,3.50
2018-06-13T16:08:32.574Z,4.08
2018-06-13T16:11:00.828Z,2.83
2018-06-13T16:13:29.070Z,6.60
2018-06-13T16:15:57.450Z,5.10
2018-06-13T16:18:25.707Z,3.17
2018-06-13T16:20:54.052Z,6.00
2018-06-13T16:23:22.590Z,2.42
2018-06-13T16:25:50.884Z,3.65
2018-06-13T16:28:19.169Z,3.25
2018-06-13T16:30:48.039Z,4.92
2018-06-13T16:33:16.484Z,2.90
2018-06-13T16:35:44.801Z,3.95
2018-06-13T16:38:13.293Z,4.97
2018-06-13T16:40:41.579Z,4.90
2018-06-13T16:43:09.826Z,2.98
2018-06-13T16:45:38.126Z,5.47
2018-06-13T16:48:06.442Z,4.12
2018-06-13T16:50:47.970Z,3.72
2018-06-13T16:53:27.482Z,7.92
2018-06-13T16:55:56.143Z,4.10
2018-06-13T16:58:24.383Z,4.17
2018-06-13T17:00:52.639Z,2.77
2018-06-13T17:03:21.126Z,3.62
2018-06-13T17:05:49.403Z,5.87
2018-06-13T17:08:19.127Z,4.75
2018-06-13T17:10:47.591Z,4.30
2018-06-13T17:13:15.850Z,3.60
2018-06-13T17:15:44.121Z,6.30
2018-06-13T17:18:12.639Z,3.08
2018-06-13T17:20:40.897Z,4.25
2018-06-13T17:23:09.149Z,4.42
2018-06-13T17:25:38.393Z,3.58
2018-06-13T17:28:06.696Z,3.20
2018-06-13T17:30:34.948Z,9.60
2018-06-13T17:33:04.548Z,5.03
2018-06-13T17:35:32.834Z,5.75
2018-06-13T17:38:01.154Z,7.30
2018-06-13T17:40:29.907Z,4.08
2018-06-13T17:42:58.174Z,7.42
2018-06-13T17:45:26.814Z,7.28
2018-06-13T17:47:56.249Z,6.35
2018-06-13T17:50:24.738Z,5.92
2018-06-13T17:52:53.146Z,8.05
2018-06-13T17:55:21.917Z,5.45
2018-06-13T17:57:50.178Z,7.20
2018-06-13T18:00:18.511Z,11.68
2018-06-13T18:02:46.819Z,8.43
2018-06-13T18:05:14.827Z,16.40
2018-06-13T18:07:45.338Z,10.80
2018-06-13T18:10:13.630Z,7.08
2018-06-13T18:12:41.880Z,8.90
2018-06-13T18:15:10.212Z,9.00
2018-06-13T18:17:38.664Z,12.65
2018-06-13T18:20:07.386Z,12.03
2018-06-13T18:22:35.871Z,17.87
2018-06-13T18:25:04.919Z,13.75
2018-06-13T18:27:33.172Z,14.45
2018-06-13T18:30:01.680Z,10.65
2018-06-13T18:32:30.011Z,9.55
2018-06-13T18:34:58.263Z,11.20
2018-06-13T18:37:27.016Z,13.08
2018-06-13T18:39:55.428Z,12.43
2018-06-13T18:42:23.808Z,12.88
2018-06-13T18:44:52.371Z,12.98
2018-06-13T18:47:20.642Z,12.18
2018-06-13T18:49:48.901Z,11.10
2018-06-13T18:52:17.317Z,11.80
2018-06-13T18:54:45.556Z,15.15
2018-06-13T18:57:13.826Z,8.15
2018-06-13T18:59:43.365Z,8.08
2018-06-13T19:02:11.612Z,8.33
2018-06-13T19:04:39.958Z,10.88
2018-06-13T19:07:08.498Z,11.95
2018-06-13T19:09:38.251Z,5.37
2018-06-13T19:12:06.758Z,9.38
2018-06-13T19:14:35.263Z,9.85
2018-06-13T19:17:03.530Z,6.83
2018-06-13T19:19:31.784Z,7.25
2018-06-13T19:22:00.407Z,5.00
2018-06-13T19:24:28.682Z,11.20
2018-06-13T19:26:56.956Z,5.78
2018-06-13T19:29:26.078Z,8.48
2018-06-13T19:31:54.439Z,8.50
2018-06-13T19:34:22.715Z,5.95
2018-06-13T19:36:51.444Z,6.92
2018-06-13T19:39:19.725Z,9.10
2018-06-13T19:41:47.717Z,11.65
2018-06-13T19:44:16.245Z,5.00
2018-06-13T19:46:44.491Z,9.93
2018-06-13T19:49:12.757Z,9.43
2018-06-13T19:51:41.675Z,7.65
2018-06-13T19:54:15.339Z,6.15
2018-06-13T19:56:43.957Z,8.18
2018-06-13T19:59:12.223Z,5.67
2018-06-13T20:01:40.535Z,6.25
2018-06-13T20:04:14.624Z,7.35
2018-06-13T20:06:42.972Z,7.72
2018-06-13T20:09:14.297Z,8.25
2018-06-13T20:11:42.668Z,7.33
2018-06-13T20:14:16.681Z,6.78
2018-06-13T20:16:50.671Z,6.80
2018-06-13T20:19:35.257Z,4.33
2018-06-13T20:22:03.618Z,6.35
2018-06-13T20:24:31.851Z,7.28
2018-06-13T20:27:05.673Z,4.47
2018-06-13T20:29:39.104Z,8.35
2018-06-13T20:32:07.854Z,6.00
2018-06-13T20:34:36.107Z,5.95
2018-06-13T20:37:04.424Z,6.30
2018-06-13T20:39:33.190Z,6.53
2018-06-13T20:42:01.455Z,6.65
2018-06-13T20:44:29.705Z,4.62
2018-06-13T20:46:58.005Z,5.62
2018-06-13T20:49:26.262Z,6.22
2018-06-13T20:51:54.514Z,8.48
2018-06-13T20:54:23.687Z,5.92
2018-06-13T20:56:51.926Z,3.95
2018-06-13T20:59:20.199Z,7.25
2018-06-13T21:01:48.578Z,4.45
2018-06-13T21:04:16.832Z,4.20
2018-06-13T21:06:45.131Z,4.33
2018-06-13T21:09:19.011Z,6.83
2018-06-13T21:11:47.041Z,8.93
2018-06-13T21:14:15.448Z,4.42
2018-06-13T21:16:43.691Z,6.35
2018-06-13T21:19:12.186Z,10.03
2018-06-13T21:21:40.718Z,6.95
2018-06-13T21:24:08.961Z,7.40
2018-06-13T21:26:37.990Z,5.67
2018-06-13T21:29:06.195Z,6.15
2018-06-13T21:31:34.542Z,6.83
2018-06-13T21:34:02.970Z,5.47
2018-06-13T21:36:31.247Z,6.17
2018-06-13T21:38:59.492Z,4.97
2018-06-13T21:41:27.837Z,5.33
2018-06-13T21:43:56.067Z,5.37
2018-06-13T21:46:24.325Z,5.10
2018-06-13T21:48:53.357Z,6.85
2018-06-13T21:51:21.587Z,4.33
2018-06-13T21:53:49.842Z,3.92
2018-06-13T21:56:18.497Z,4.17
2018-06-13T21:58:46.793Z,5.03
2018-06-13T22:01:14.968Z,5.05
2018-06-13T22:03:47.414Z,6.22
2018-06-13T22:06:15.667Z,6.97
2018-06-13T22:08:45.513Z,3.40
2018-06-13T22:11:14.144Z,3.45
2018-06-13T22:13:42.380Z,4.33
2018-06-13T22:16:10.652Z,4.83
2018-06-13T22:18:38.885Z,4.50
2018-06-13T22:21:07.134Z,2.62
2018-06-13T22:23:35.410Z,2.62
2018-06-13T22:26:03.650Z,4.35
2018-06-13T22:28:31.914Z,3.08
2018-06-13T22:31:00.927Z,3.20
2018-06-13T22:33:29.188Z,3.52
2018-06-13T22:35:57.435Z,4.47
2018-06-13T22:38:25.726Z,4.17
2018-06-13T22:40:53.971Z,3.00
2018-06-13T22:43:22.212Z,4.22
2018-06-13T22:45:50.494Z,5.85
2018-06-13T22:48:18.737Z,4.10
2018-06-13T22:50:46.977Z,2.98
2018-06-13T22:53:15.757Z,2.52
2018-06-13T22:55:43.957Z,2.80
2018-06-13T22:58:12.195Z,4.03
2018-06-13T23:01:05.759Z,4.55
2018-06-13T23:03:34.059Z,3.60
2018-06-13T23:06:04.688Z,3.70
2018-06-13T23:08:35.834Z,2.70
2018-06-13T23:11:04.351Z,4.12
2018-06-13T23:13:33.207Z,4.12
2018-06-13T23:16:01.544Z,2.95
2018-06-13T23:18:30.400Z,3.80
2018-06-13T23:20:58.775Z,3.02
2018-06-13T23:23:27.200Z,3.10
2018-06-13T23:25:56.346Z,5.22
2018-06-13T23:28:24.834Z,3.25
2018-06-13T23:30:53.215Z,3.58
2018-06-13T23:33:21.441Z,2.55
2018-06-13T23:35:49.906Z,2.92
2018-06-13T23:38:18.202Z,4.33
2018-06-13T23:40:46.703Z,2.60
2018-06-13T23:43:14.977Z,2.80
2018-06-13T23:45:43.231Z,2.90
2018-06-13T23:48:11.605Z,3.55
2018-06-13T23:50:40.593Z,2.65
2018-06-13T23:53:08.820Z,2.45
2018-06-13T23:55:37.087Z,2.30
2018-06-13T23:58:05.726Z,4.80
